createdAt,value
2019-04-14T00:00:12.063Z,2.31
2019-04-14T00:01:12.980Z,2.27
2019-04-14T00:02:12.039Z,2.27
2019-04-14T00:03:12.984Z,2.43
2019-04-14T00:04:12.032Z,2.43
2019-04-14T00:05:12.516Z,2.45
2019-04-14T00:06:11.997Z,2.48
2019-04-14T00:07:12.246Z,2.54
2019-04-14T00:08:12.001Z,2.57
2019-04-14T00:09:12.013Z,2.52
2019-04-14T00:10:11.952Z,2.46
2019-04-14T00:11:12.597Z,2.53
2019-04-14T00:12:12.136Z,2.43
2019-04-14T00:13:13.088Z,2.41
2019-04-14T00:14:11.916Z,2.46
2019-04-14T00:15:23.388Z,2.35
2019-04-14T00:16:14.113Z,2.28
2019-04-14T00:17:12.967Z,2.31
2019-04-14T00:18:11.915Z,2.36
2019-04-14T00:19:12.981Z,2.34
2019-04-14T00:20:11.930Z,2.21
2019-04-14T00:21:12.949Z,2.25
2019-04-14T00:22:11.869Z,2.27
2019-04-14T00:23:12.976Z,2.25
2019-04-14T00:24:11.808Z,2.20
2019-04-14T00:25:12.933Z,2.24
2019-04-14T00:26:11.830Z,2.23
2019-04-14T00:27:12.808Z,2.25
2019-04-14T00:28:11.801Z,2.28
2019-04-14T00:29:13.092Z,2.23
2019-04-14T00:30:11.919Z,2.28
2019-04-14T00:31:11.728Z,2.30
2019-04-14T00:32:11.799Z,2.28
2019-04-14T00:33:12.773Z,2.28
2019-04-14T00:34:11.694Z,2.31
2019-04-14T00:35:12.486Z,2.27
2019-04-14T00:36:11.678Z,2.36
2019-04-14T00:37:12.110Z,2.43
2019-04-14T00:38:12.972Z,2.39
2019-04-14T00:39:11.829Z,2.41
2019-04-14T00:40:12.809Z,2.49
2019-04-14T00:41:11.682Z,2.45
2019-04-14T00:42:12.678Z,2.48
2019-04-14T00:43:11.646Z,2.46
2019-04-14T00:44:12.431Z,2.46
2019-04-14T00:45:11.579Z,2.54
2019-04-14T00:46:12.526Z,2.56
2019-04-14T00:47:11.566Z,2.49
2019-04-14T00:48:14.972Z,2.60
2019-04-14T00:49:13.610Z,2.56
2019-04-14T00:50:12.531Z,2.59
2019-04-14T00:51:11.516Z,2.56
2019-04-14T00:52:12.463Z,2.57
2019-04-14T00:53:12.065Z,2.53
2019-04-14T00:54:13.231Z,2.64
2019-04-14T00:55:11.843Z,2.45
2019-04-14T00:56:11.469Z,2.61
2019-04-14T00:57:11.600Z,2.54
2019-04-14T00:58:12.677Z,2.53
2019-04-14T00:59:11.491Z,2.60
2019-04-14T01:00:12.712Z,2.67
2019-04-14T01:01:11.417Z,2.53
2019-04-14T01:02:12.381Z,2.49
2019-04-14T01:03:11.390Z,2.48
2019-04-14T01:04:12.249Z,2.46
2019-04-14T01:05:11.430Z,2.49
2019-04-14T01:06:12.222Z,2.42
2019-04-14T01:07:11.342Z,2.57
2019-04-14T01:08:11.995Z,2.43
2019-04-14T01:09:11.422Z,2.43
2019-04-14T01:10:11.318Z,2.46
2019-04-14T01:11:11.720Z,2.45
2019-04-14T01:12:11.332Z,2.36
2019-04-14T01:13:12.715Z,2.41
2019-04-14T01:14:12.558Z,2.38
2019-04-14T01:15:11.579Z,2.43
2019-04-14T01:16:15.432Z,2.35
2019-04-14T01:17:13.400Z,2.43
2019-04-14T01:18:12.431Z,2.39
2019-04-14T01:19:11.330Z,2.41
2019-04-14T01:20:12.401Z,2.27
2019-04-14T01:21:11.215Z,2.31
2019-04-14T01:22:11.992Z,2.27
2019-04-14T01:23:11.213Z,2.17
2019-04-14T01:24:14.146Z,2.21
2019-04-14T01:25:11.156Z,2.17
2019-04-14T01:26:11.761Z,2.24
2019-04-14T01:27:12.375Z,2.27
2019-04-14T01:28:11.352Z,2.23
2019-04-14T01:29:12.212Z,2.24
2019-04-14T01:30:11.273Z,2.20
2019-04-14T01:31:12.004Z,2.18
2019-04-14T01:32:11.254Z,2.18
2019-04-14T01:33:11.899Z,2.16
2019-04-14T01:34:11.079Z,2.23
2019-04-14T01:35:11.725Z,2.24
2019-04-14T01:36:11.029Z,2.30
2019-04-14T01:37:11.566Z,2.16
2019-04-14T01:38:11.015Z,2.25
2019-04-14T01:39:11.159Z,2.09
2019-04-14T01:40:12.041Z,2.16
2019-04-14T01:41:11.018Z,2.16
2019-04-14T01:42:11.623Z,2.18
2019-04-14T01:43:10.967Z,2.17
2019-04-14T01:44:11.273Z,2.18
2019-04-14T01:45:12.099Z,2.21
2019-04-14T01:46:16.574Z,2.17
2019-04-14T01:47:11.952Z,2.10
2019-04-14T01:48:10.955Z,2.10
2019-04-14T01:49:11.540Z,2.14
2019-04-14T01:50:10.964Z,2.16
2019-04-14T01:51:11.303Z,2.16
2019-04-14T01:52:10.931Z,2.17
2019-04-14T01:53:11.937Z,2.09
2019-04-14T01:54:10.956Z,2.16
2019-04-14T01:55:11.197Z,2.18
2019-04-14T01:56:10.872Z,2.06
2019-04-14T01:57:11.082Z,2.17
2019-04-14T01:58:12.123Z,2.14
2019-04-14T01:59:10.861Z,2.27
2019-04-14T02:00:11.970Z,2.30
2019-04-14T02:01:10.829Z,2.18
2019-04-14T02:02:11.887Z,2.20
2019-04-14T02:03:10.804Z,2.21
2019-04-14T02:04:11.673Z,2.18
2019-04-14T02:05:10.834Z,2.17
2019-04-14T02:06:11.437Z,2.17
2019-04-14T02:07:10.768Z,2.20
2019-04-14T02:08:11.224Z,2.21
2019-04-14T02:09:12.099Z,2.17
2019-04-14T02:10:10.784Z,2.16
2019-04-14T02:11:11.626Z,2.05
2019-04-14T02:12:10.704Z,2.07
2019-04-14T02:13:11.496Z,2.16
2019-04-14T02:14:10.685Z,2.05
2019-04-14T02:15:11.863Z,2.05
2019-04-14T02:16:21.097Z,1.93
2019-04-14T02:17:11.662Z,2.02
2019-04-14T02:18:11.995Z,1.99
2019-04-14T02:19:10.981Z,1.95
2019-04-14T02:20:11.849Z,1.99
2019-04-14T02:21:10.811Z,1.90
2019-04-14T02:22:11.685Z,1.99
2019-04-14T02:23:10.579Z,1.86
2019-04-14T02:24:11.345Z,1.80
2019-04-14T02:25:10.605Z,1.79
2019-04-14T02:26:11.217Z,1.81
2019-04-14T02:27:11.953Z,1.79
2019-04-14T02:28:11.240Z,1.83
2019-04-14T02:29:10.525Z,1.79
2019-04-14T02:30:17.388Z,1.83
2019-04-14T02:31:24.814Z,1.84
2019-04-14T02:33:40.278Z,1.84
2019-04-14T02:35:49.762Z,1.76
2019-04-14T02:36:41.640Z,1.69
2019-04-14T02:37:49.182Z,1.73
2019-04-14T02:38:49.340Z,1.68
2019-04-14T02:39:38.968Z,1.79
2019-04-14T02:43:37.980Z,1.80
2019-04-14T02:44:38.275Z,1.77
2019-04-14T02:48:48.056Z,1.76
2019-04-14T02:50:08.763Z,1.81
2019-04-14T02:50:30.649Z,1.73
2019-04-14T02:51:38.474Z,1.66
2019-04-14T02:52:34.903Z,1.80
2019-04-14T02:53:44.296Z,1.70
2019-04-14T02:54:43.653Z,1.66
2019-04-14T02:55:46.819Z,1.73
2019-04-14T02:56:40.141Z,1.65
2019-04-14T02:59:35.536Z,1.58
2019-04-14T03:01:38.769Z,1.59
2019-04-14T03:04:33.922Z,1.63
2019-04-14T03:05:44.722Z,1.68
2019-04-14T03:06:35.365Z,1.60
2019-04-14T03:07:41.992Z,1.55
2019-04-14T03:08:45.764Z,1.50
2019-04-14T03:09:42.265Z,1.47
2019-04-14T03:11:44.463Z,1.36
2019-04-14T03:13:35.149Z,1.48
2019-04-14T03:14:40.240Z,1.44
2019-04-14T03:15:43.182Z,1.52
2019-04-14T03:16:46.320Z,1.51
2019-04-14T03:17:39.125Z,1.50
2019-04-14T03:19:44.505Z,1.50
2019-04-14T03:20:31.862Z,1.42
2019-04-14T03:21:36.320Z,1.37
2019-04-14T03:24:32.914Z,1.36
2019-04-14T03:25:30.128Z,1.41
2019-04-14T03:26:38.236Z,1.40
2019-04-14T03:27:41.897Z,1.37
2019-04-14T03:29:37.115Z,1.42
2019-04-14T03:30:58.547Z,1.44
2019-04-14T03:33:13.859Z,1.36
2019-04-14T03:34:39.239Z,1.40
2019-04-14T03:37:16.372Z,1.30
2019-04-14T03:37:45.329Z,1.27
2019-04-14T03:38:34.454Z,1.29
2019-04-14T03:39:38.583Z,1.23
2019-04-14T03:42:48.555Z,1.32
2019-04-14T03:43:39.236Z,1.37
2019-04-14T03:44:45.010Z,1.40
2019-04-14T03:45:42.891Z,1.48
2019-04-14T03:47:34.452Z,1.55
2019-04-14T03:49:37.439Z,1.52
2019-04-14T03:50:37.382Z,1.52
2019-04-14T03:51:52.491Z,1.54
2019-04-14T03:52:37.679Z,1.60
2019-04-14T03:54:25.840Z,1.58
2019-04-14T03:55:25.041Z,1.60
2019-04-14T03:56:14.388Z,1.63
2019-04-14T03:57:10.442Z,1.58
2019-04-14T03:58:11.489Z,1.55
2019-04-14T03:59:10.531Z,1.62
2019-04-14T04:00:09.656Z,1.66
2019-04-14T04:01:10.528Z,1.63
2019-04-14T04:02:09.718Z,1.51
2019-04-14T04:03:10.560Z,1.63
2019-04-14T04:04:09.702Z,1.60
2019-04-14T04:05:10.623Z,1.58
2019-04-14T04:06:09.730Z,1.66
2019-04-14T04:07:10.315Z,1.66
2019-04-14T04:08:09.443Z,1.66
2019-04-14T04:09:10.500Z,1.66
2019-04-14T04:10:09.500Z,1.63
2019-04-14T04:11:10.470Z,1.68
2019-04-14T04:12:09.634Z,1.72
2019-04-14T04:13:10.462Z,1.60
2019-04-14T04:14:09.644Z,1.65
2019-04-14T04:15:10.401Z,1.54
2019-04-14T04:16:09.401Z,1.62
2019-04-14T04:17:10.129Z,1.58
2019-04-14T04:18:09.314Z,1.59
2019-04-14T04:19:13.571Z,1.60
2019-04-14T04:20:11.004Z,1.60
2019-04-14T04:21:09.517Z,1.59
2019-04-14T04:22:13.541Z,1.68
2019-04-14T04:23:09.590Z,1.69
2019-04-14T04:24:09.245Z,1.79
2019-04-14T04:25:09.474Z,1.80
2019-04-14T04:26:10.221Z,1.69
2019-04-14T04:27:09.254Z,1.63
2019-04-14T04:28:10.186Z,1.70
2019-04-14T04:29:09.369Z,1.73
2019-04-14T04:30:10.214Z,1.72
2019-04-14T04:31:09.212Z,1.68
2019-04-14T04:32:09.950Z,1.73
2019-04-14T04:33:09.187Z,1.83
2019-04-14T04:34:09.780Z,1.69
2019-04-14T04:35:09.122Z,1.77
2019-04-14T04:36:09.533Z,1.76
2019-04-14T04:37:10.384Z,1.68
2019-04-14T04:38:09.526Z,1.69
2019-04-14T04:39:10.299Z,1.76
2019-04-14T04:40:09.405Z,1.72
2019-04-14T04:41:10.147Z,1.80
2019-04-14T04:42:09.227Z,1.79
2019-04-14T04:43:10.094Z,1.76
2019-04-14T04:44:09.439Z,1.70
2019-04-14T04:45:10.289Z,1.73
2019-04-14T04:46:09.150Z,1.76
2019-04-14T04:47:09.949Z,1.79
2019-04-14T04:48:09.083Z,1.77
2019-04-14T04:49:15.138Z,1.72
2019-04-14T04:50:10.766Z,1.72
2019-04-14T04:51:09.334Z,1.69
2019-04-14T04:52:11.435Z,1.68
2019-04-14T04:53:09.128Z,1.70
2019-04-14T04:54:08.922Z,1.68
2019-04-14T04:55:08.971Z,1.63
2019-04-14T04:56:10.036Z,1.58
2019-04-14T04:57:08.981Z,1.69
2019-04-14T04:58:10.075Z,1.66
2019-04-14T04:59:09.782Z,1.72
2019-04-14T05:00:09.261Z,1.73
2019-04-14T05:01:09.949Z,1.79
2019-04-14T05:02:09.108Z,1.72
2019-04-14T05:03:09.984Z,1.79
2019-04-14T05:04:09.042Z,1.81
2019-04-14T05:05:09.825Z,1.79
2019-04-14T05:06:09.238Z,1.86
2019-04-14T05:07:09.983Z,1.93
2019-04-14T05:08:08.961Z,1.91
2019-04-14T05:09:09.883Z,1.93
2019-04-14T05:10:09.015Z,1.95
2019-04-14T05:11:09.686Z,1.99
2019-04-14T05:12:09.128Z,1.95
2019-04-14T05:13:09.392Z,1.99
2019-04-14T05:14:08.843Z,1.93
2019-04-14T05:15:09.451Z,1.91
2019-04-14T05:16:08.705Z,1.98
2019-04-14T05:17:08.746Z,1.95
2019-04-14T05:18:09.115Z,2.10
2019-04-14T05:19:18.327Z,2.06
2019-04-14T05:20:09.696Z,2.18
2019-04-14T05:21:08.642Z,2.14
2019-04-14T05:22:09.261Z,2.14
2019-04-14T05:23:08.719Z,2.16
2019-04-14T05:24:09.297Z,2.20
2019-04-14T05:25:08.590Z,2.34
2019-04-14T05:26:09.212Z,2.31
2019-04-14T05:27:08.638Z,2.43
2019-04-14T05:28:09.131Z,2.41
2019-04-14T05:29:09.867Z,2.38
2019-04-14T05:30:08.987Z,2.38
2019-04-14T05:31:09.689Z,2.43
2019-04-14T05:32:08.825Z,2.38
2019-04-14T05:33:09.571Z,2.43
2019-04-14T05:34:08.670Z,2.57
2019-04-14T05:35:09.643Z,2.57
2019-04-14T05:36:08.647Z,2.64
2019-04-14T05:37:09.280Z,2.49
2019-04-14T05:38:10.403Z,2.77
2019-04-14T05:39:08.979Z,2.82
2019-04-14T05:40:08.517Z,2.96
2019-04-14T05:41:09.133Z,2.78
2019-04-14T05:42:13.208Z,2.81
2019-04-14T05:43:09.429Z,2.67
2019-04-14T05:44:08.378Z,2.60
2019-04-14T05:45:08.737Z,2.61
2019-04-14T05:46:08.440Z,2.97
2019-04-14T05:47:08.718Z,3.11
2019-04-14T05:48:09.625Z,3.14
2019-04-14T05:49:08.600Z,3.17
2019-04-14T05:50:09.411Z,3.32
2019-04-14T05:51:08.564Z,3.40
2019-04-14T05:52:08.307Z,3.52
2019-04-14T05:53:08.682Z,3.58
2019-04-14T05:54:08.394Z,3.54
2019-04-14T05:55:08.809Z,3.40
2019-04-14T05:56:08.320Z,3.17
2019-04-14T05:57:08.826Z,3.32
2019-04-14T05:58:08.265Z,3.36
2019-04-14T05:59:08.880Z,3.50
2019-04-14T06:00:08.288Z,3.61
2019-04-14T06:01:08.986Z,3.65
2019-04-14T06:02:09.302Z,3.68
2019-04-14T06:03:08.248Z,3.83
2019-04-14T06:04:09.257Z,3.90
2019-04-14T06:05:09.144Z,3.80
2019-04-14T06:06:08.202Z,3.84
2019-04-14T06:07:08.128Z,3.83
2019-04-14T06:08:08.179Z,3.84
2019-04-14T06:09:08.190Z,3.79
2019-04-14T06:10:08.133Z,3.91
2019-04-14T06:11:08.144Z,3.98
2019-04-14T06:12:08.082Z,4.02
2019-04-14T06:13:08.101Z,3.90
2019-04-14T06:14:08.062Z,3.78
2019-04-14T06:15:08.100Z,4.00
2019-04-14T06:16:08.037Z,4.09
2019-04-14T06:17:08.219Z,4.27
2019-04-14T06:18:08.061Z,4.65
2019-04-14T06:19:08.046Z,4.55
2019-04-14T06:20:07.993Z,4.45
2019-04-14T06:21:08.082Z,4.65
2019-04-14T06:22:07.985Z,4.37
2019-04-14T06:23:08.014Z,4.23
2019-04-14T06:24:07.958Z,4.04
2019-04-14T06:25:07.944Z,4.32
2019-04-14T06:26:07.951Z,4.52
2019-04-14T06:27:07.914Z,4.70
2019-04-14T06:28:07.944Z,4.70
2019-04-14T06:29:07.923Z,4.58
2019-04-14T06:30:08.153Z,4.55
2019-04-14T06:31:09.022Z,4.41
2019-04-14T06:32:07.880Z,4.82
2019-04-14T06:33:07.872Z,4.99
2019-04-14T06:34:07.934Z,4.99
2019-04-14T06:35:07.851Z,4.69
2019-04-14T06:36:07.825Z,4.97
2019-04-14T06:37:07.820Z,5.22
2019-04-14T06:38:07.863Z,5.25
2019-04-14T06:39:07.786Z,5.09
2019-04-14T06:40:07.772Z,5.12
2019-04-14T06:41:07.764Z,4.97
2019-04-14T06:42:07.752Z,5.42
2019-04-14T06:43:07.826Z,5.49
2019-04-14T06:44:07.723Z,5.49
2019-04-14T06:45:07.749Z,5.54
2019-04-14T06:46:07.700Z,5.30
2019-04-14T06:47:07.707Z,5.21
2019-04-14T06:48:07.715Z,5.38
2019-04-14T06:49:07.681Z,5.51
2019-04-14T06:50:07.716Z,5.54
2019-04-14T06:51:07.653Z,5.51
2019-04-14T06:52:07.656Z,5.71
2019-04-14T06:53:07.654Z,6.09
2019-04-14T06:54:07.657Z,6.59
2019-04-14T06:55:07.630Z,6.37
2019-04-14T06:56:07.598Z,6.01
2019-04-14T06:57:07.594Z,5.93
2019-04-14T06:58:07.696Z,6.11
2019-04-14T06:59:07.566Z,5.86
2019-04-14T07:00:07.549Z,5.63
2019-04-14T07:01:07.537Z,5.74
2019-04-14T07:02:08.683Z,5.86
2019-04-14T07:03:07.548Z,6.08
2019-04-14T07:04:07.498Z,6.15
2019-04-14T07:05:07.530Z,5.81
2019-04-14T07:06:07.486Z,6.00
2019-04-14T07:07:07.505Z,6.28
2019-04-14T07:08:07.525Z,5.86
2019-04-14T07:09:07.449Z,5.94
2019-04-14T07:10:07.491Z,5.74
2019-04-14T07:11:07.444Z,6.04
2019-04-14T07:12:07.563Z,6.51
2019-04-14T07:13:07.431Z,7.05
2019-04-14T07:14:07.397Z,6.58
2019-04-14T07:15:07.443Z,6.69
2019-04-14T07:16:07.421Z,6.88
2019-04-14T07:17:07.363Z,6.77
2019-04-14T07:18:07.379Z,6.85
2019-04-14T07:19:07.344Z,6.52
2019-04-14T07:20:07.339Z,6.62
2019-04-14T07:21:07.397Z,6.77
2019-04-14T07:22:07.306Z,6.76
2019-04-14T07:23:07.326Z,6.81
2019-04-14T07:24:07.315Z,6.99
2019-04-14T07:25:07.285Z,6.87
2019-04-14T07:26:07.264Z,6.85
2019-04-14T07:27:07.300Z,6.49
2019-04-14T07:28:07.274Z,6.85
2019-04-14T07:29:07.247Z,7.07
2019-04-14T07:30:07.242Z,7.17
2019-04-14T07:31:07.223Z,7.52
2019-04-14T07:32:07.212Z,7.25
2019-04-14T07:33:07.214Z,7.10
2019-04-14T07:34:07.172Z,7.05
2019-04-14T07:35:07.216Z,6.87
2019-04-14T07:36:07.160Z,7.30
2019-04-14T07:37:07.199Z,7.61
2019-04-14T07:38:07.271Z,7.21
2019-04-14T07:39:07.158Z,7.60
2019-04-14T07:40:07.106Z,7.86
2019-04-14T07:41:07.106Z,7.64
2019-04-14T07:42:07.085Z,7.95
2019-04-14T07:43:07.188Z,8.36
2019-04-14T07:44:07.077Z,7.95
2019-04-14T07:45:07.051Z,8.11
2019-04-14T07:46:07.076Z,8.20
2019-04-14T07:47:07.046Z,8.36
2019-04-14T07:48:07.022Z,8.38
2019-04-14T07:49:07.128Z,8.26
2019-04-14T07:50:14.537Z,8.30
2019-04-14T07:51:08.002Z,8.50
2019-04-14T07:52:07.019Z,8.47
2019-04-14T07:53:06.990Z,8.50
2019-04-14T07:54:07.020Z,8.30
2019-04-14T07:55:06.946Z,7.72
2019-04-14T07:56:06.959Z,7.69
2019-04-14T07:57:06.975Z,7.98
2019-04-14T07:58:06.964Z,7.97
2019-04-14T07:59:06.937Z,8.33
2019-04-14T08:00:06.898Z,8.11
2019-04-14T08:01:06.941Z,8.56
2019-04-14T08:02:06.892Z,7.95
2019-04-14T08:03:06.906Z,8.01
2019-04-14T08:04:06.947Z,7.93
2019-04-14T08:05:06.840Z,7.90
2019-04-14T08:06:06.864Z,8.01
2019-04-14T08:07:06.833Z,8.16
2019-04-14T08:08:06.805Z,8.77
2019-04-14T08:09:06.810Z,8.80
2019-04-14T08:10:06.809Z,8.70
2019-04-14T08:11:06.905Z,8.83
2019-04-14T08:12:06.781Z,8.95
2019-04-14T08:13:06.817Z,9.18
2019-04-14T08:14:06.759Z,9.17
2019-04-14T08:15:15.623Z,9.93
2019-04-14T08:16:06.724Z,9.72
2019-04-14T08:17:06.746Z,9.18
2019-04-14T08:18:06.737Z,9.14
2019-04-14T08:19:06.734Z,8.73
2019-04-14T08:20:10.681Z,9.14
2019-04-14T08:21:06.721Z,9.40
2019-04-14T08:22:06.653Z,9.47
2019-04-14T08:23:06.669Z,9.31
2019-04-14T08:24:06.689Z,9.64
2019-04-14T08:25:06.656Z,9.38
2019-04-14T08:26:06.625Z,9.61
2019-04-14T08:27:06.632Z,9.83
2019-04-14T08:28:06.632Z,9.35
2019-04-14T08:29:06.629Z,9.61
2019-04-14T08:30:06.650Z,9.61
2019-04-14T08:31:06.564Z,9.76
2019-04-14T08:32:06.606Z,9.83
2019-04-14T08:33:06.518Z,9.86
2019-04-14T08:34:06.509Z,10.40
2019-04-14T08:35:08.286Z,10.29
2019-04-14T08:36:06.600Z,11.15
2019-04-14T08:37:06.490Z,10.91
2019-04-14T08:38:06.478Z,10.33
2019-04-14T08:39:06.496Z,9.54
2019-04-14T08:40:06.560Z,9.56
2019-04-14T08:41:06.483Z,9.61
2019-04-14T08:42:06.515Z,9.84
2019-04-14T08:43:06.438Z,10.02
2019-04-14T08:44:06.484Z,10.44
2019-04-14T08:45:06.440Z,10.40
2019-04-14T08:46:06.442Z,10.29
2019-04-14T08:47:06.388Z,10.17
2019-04-14T08:48:06.373Z,9.93
2019-04-14T08:49:06.379Z,10.17
2019-04-14T08:50:07.106Z,10.20
2019-04-14T08:51:06.386Z,10.08
2019-04-14T08:52:06.344Z,10.70
2019-04-14T08:53:06.332Z,10.51
2019-04-14T08:54:06.293Z,10.66
2019-04-14T08:55:07.226Z,10.38
2019-04-14T08:56:06.267Z,10.30
2019-04-14T08:57:06.263Z,9.84
2019-04-14T08:58:06.298Z,10.15
2019-04-14T08:59:06.355Z,10.07
2019-04-14T09:00:06.273Z,10.40
2019-04-14T09:01:06.269Z,10.30
2019-04-14T09:02:06.202Z,9.93
2019-04-14T09:03:06.231Z,9.69
2019-04-14T09:04:06.271Z,10.17
2019-04-14T09:05:06.171Z,10.29
2019-04-14T09:06:06.194Z,10.22
2019-04-14T09:07:06.192Z,9.97
2019-04-14T09:08:06.278Z,9.60
2019-04-14T09:09:07.482Z,9.84
2019-04-14T09:10:06.166Z,10.78
2019-04-14T09:11:06.165Z,10.94
2019-04-14T09:12:15.307Z,11.69
2019-04-14T09:13:07.136Z,11.02
2019-04-14T09:14:06.125Z,10.97
2019-04-14T09:15:06.135Z,11.17
2019-04-14T09:16:06.610Z,11.67
2019-04-14T09:17:06.089Z,11.46
2019-04-14T09:18:06.063Z,10.82
2019-04-14T09:19:07.878Z,11.79
2019-04-14T09:20:06.014Z,11.64
2019-04-14T09:21:06.116Z,11.32
2019-04-14T09:22:06.026Z,11.37
2019-04-14T09:23:05.989Z,11.65
2019-04-14T09:24:05.971Z,10.99
2019-04-14T09:25:06.058Z,11.33
2019-04-14T09:26:06.009Z,11.06
2019-04-14T09:27:06.004Z,10.97
2019-04-14T09:28:05.944Z,10.85
2019-04-14T09:29:05.932Z,11.22
2019-04-14T09:30:05.946Z,11.10
2019-04-14T09:31:05.925Z,10.88
2019-04-14T09:32:05.991Z,10.81
2019-04-14T09:33:05.898Z,11.14
2019-04-14T09:34:05.871Z,11.67
2019-04-14T09:35:05.867Z,11.70
2019-04-14T09:36:05.890Z,11.76
2019-04-14T09:37:05.831Z,11.85
2019-04-14T09:38:05.886Z,12.07
2019-04-14T09:39:05.828Z,11.99
2019-04-14T09:40:05.898Z,12.29
2019-04-14T09:41:05.814Z,11.72
2019-04-14T09:42:05.883Z,11.69
2019-04-14T09:43:05.846Z,11.55
2019-04-14T09:44:05.805Z,11.98
2019-04-14T09:45:05.824Z,11.55
2019-04-14T09:46:05.784Z,11.91
2019-04-14T09:47:05.738Z,12.02
2019-04-14T09:48:05.701Z,11.88
2019-04-14T09:49:05.793Z,11.60
2019-04-14T09:50:05.686Z,10.79
2019-04-14T09:51:06.630Z,11.04
2019-04-14T09:52:05.798Z,11.29
2019-04-14T09:53:05.659Z,11.73
2019-04-14T09:54:05.649Z,12.27
2019-04-14T09:55:05.639Z,12.17
2019-04-14T09:56:05.674Z,12.10
2019-04-14T09:57:05.630Z,12.07
2019-04-14T09:58:05.647Z,11.40
2019-04-14T09:59:05.596Z,11.47
2019-04-14T10:00:05.592Z,11.49
2019-04-14T10:01:05.590Z,11.72
2019-04-14T10:02:05.589Z,11.43
2019-04-14T10:03:05.586Z,12.24
2019-04-14T10:04:05.530Z,12.35
2019-04-14T10:05:05.542Z,12.32
2019-04-14T10:06:05.531Z,12.74
2019-04-14T10:07:06.214Z,12.93
2019-04-14T10:08:05.478Z,12.41
2019-04-14T10:09:05.504Z,11.94
2019-04-14T10:10:05.463Z,11.91
2019-04-14T10:11:05.474Z,11.95
2019-04-14T10:12:07.155Z,12.20
2019-04-14T10:13:05.446Z,12.41
2019-04-14T10:14:05.447Z,12.52
2019-04-14T10:15:05.503Z,12.78
2019-04-14T10:16:05.442Z,13.22
2019-04-14T10:17:13.519Z,13.52
2019-04-14T10:18:05.374Z,13.36
2019-04-14T10:19:05.412Z,13.44
2019-04-14T10:20:05.367Z,12.28
2019-04-14T10:21:16.929Z,11.24
2019-04-14T10:22:06.363Z,10.34
2019-04-14T10:23:05.437Z,11.25
2019-04-14T10:24:05.375Z,11.52
2019-04-14T10:25:05.346Z,12.31
2019-04-14T10:26:05.299Z,12.64
2019-04-14T10:27:05.390Z,11.37
2019-04-14T10:28:05.357Z,11.09
2019-04-14T10:29:05.268Z,11.49
2019-04-14T10:30:05.254Z,12.29
2019-04-14T10:31:05.273Z,12.79
2019-04-14T10:32:11.137Z,12.90
2019-04-14T10:33:05.316Z,13.45
2019-04-14T10:34:05.206Z,13.97
2019-04-14T10:35:05.255Z,12.89
2019-04-14T10:36:05.292Z,12.57
2019-04-14T10:37:05.208Z,12.65
2019-04-14T10:38:05.315Z,12.67
2019-04-14T10:39:05.225Z,12.78
2019-04-14T10:40:06.173Z,11.96
2019-04-14T10:41:05.130Z,12.46
2019-04-14T10:42:44.294Z,12.38
2019-04-14T10:43:05.165Z,12.32
2019-04-14T10:44:05.169Z,11.95
2019-04-14T10:45:05.149Z,12.95
2019-04-14T10:46:05.142Z,13.97
2019-04-14T10:47:11.149Z,13.14
2019-04-14T10:48:05.064Z,13.17
2019-04-14T10:49:05.078Z,13.12
2019-04-14T10:50:05.133Z,12.86
2019-04-14T10:51:05.018Z,12.82
2019-04-14T10:52:05.076Z,12.92
2019-04-14T10:53:05.127Z,12.60
2019-04-14T10:54:05.036Z,11.67
2019-04-14T10:55:04.981Z,11.11
2019-04-14T10:56:04.994Z,10.76
2019-04-14T10:57:17.678Z,12.02
2019-04-14T10:58:04.953Z,11.72
2019-04-14T10:59:04.946Z,10.86
2019-04-14T11:00:05.139Z,10.48
2019-04-14T11:01:04.989Z,10.82
2019-04-14T11:02:05.634Z,11.28
2019-04-14T11:03:04.942Z,11.10
2019-04-14T11:04:07.818Z,11.75
2019-04-14T11:05:04.870Z,12.65
2019-04-14T11:06:04.967Z,12.97
2019-04-14T11:07:06.765Z,13.00
2019-04-14T11:08:04.832Z,12.75
2019-04-14T11:09:04.874Z,11.36
2019-04-14T11:10:04.810Z,11.04
2019-04-14T11:11:04.845Z,12.29
2019-04-14T11:12:21.224Z,12.54
2019-04-14T11:13:04.811Z,13.63
2019-04-14T11:14:04.765Z,13.54
2019-04-14T11:15:04.762Z,13.44
2019-04-14T11:16:04.748Z,13.60
2019-04-14T11:17:05.261Z,13.55
2019-04-14T11:18:04.765Z,14.43
2019-04-14T11:19:04.718Z,14.04
2019-04-14T11:20:04.775Z,13.48
2019-04-14T11:21:04.695Z,13.41
2019-04-14T11:22:05.148Z,13.77
2019-04-14T11:23:04.714Z,14.21
2019-04-14T11:24:04.693Z,13.66
2019-04-14T11:25:04.642Z,14.39
2019-04-14T11:26:04.731Z,14.10
2019-04-14T11:27:04.693Z,14.15
2019-04-14T11:28:04.619Z,13.96
2019-04-14T11:29:04.632Z,13.54
2019-04-14T11:30:04.612Z,13.92
2019-04-14T11:31:04.613Z,13.85
2019-04-14T11:32:04.629Z,13.22
2019-04-14T11:33:04.597Z,12.35
2019-04-14T11:34:04.549Z,13.59
2019-04-14T11:35:04.539Z,14.35
2019-04-14T11:36:04.531Z,14.77
2019-04-14T11:37:27.653Z,14.89
2019-04-14T11:38:04.557Z,14.86
2019-04-14T11:39:04.519Z,13.10
2019-04-14T11:40:04.563Z,12.01
2019-04-14T11:41:04.489Z,12.70
2019-04-14T11:42:04.627Z,12.78
2019-04-14T11:43:04.462Z,13.46
2019-04-14T11:44:04.491Z,13.60
2019-04-14T11:45:04.510Z,13.51
2019-04-14T11:46:04.426Z,14.20
2019-04-14T11:47:04.418Z,13.55
2019-04-14T11:48:36.331Z,12.45
2019-04-14T11:49:04.396Z,12.13
2019-04-14T11:50:04.393Z,13.04
2019-04-14T11:51:04.416Z,13.62
2019-04-14T11:52:04.604Z,14.07
2019-04-14T11:53:07.826Z,14.52
2019-04-14T11:54:04.409Z,14.27
2019-04-14T11:55:04.321Z,14.03
2019-04-14T11:56:04.535Z,14.35
2019-04-14T11:57:04.388Z,15.03
2019-04-14T11:58:11.652Z,15.62
2019-04-14T11:59:04.319Z,14.99
2019-04-14T12:00:04.393Z,12.95
2019-04-14T12:01:04.270Z,11.98
2019-04-14T12:02:04.258Z,11.43
2019-04-14T12:03:08.227Z,11.06
2019-04-14T12:04:04.235Z,11.14
2019-04-14T12:05:04.214Z,12.35
2019-04-14T12:06:04.212Z,13.36
2019-04-14T12:07:04.264Z,13.48
2019-04-14T12:08:04.251Z,13.54
2019-04-14T12:09:04.226Z,14.42
2019-04-14T12:10:04.226Z,14.32
2019-04-14T12:11:04.171Z,13.15
2019-04-14T12:12:04.141Z,12.23
2019-04-14T12:13:11.807Z,11.83
2019-04-14T12:14:04.127Z,11.69
2019-04-14T12:15:04.123Z,11.51
2019-04-14T12:16:04.192Z,11.18
2019-04-14T12:17:04.128Z,10.92
2019-04-14T12:18:05.148Z,10.97
2019-04-14T12:19:04.085Z,10.74
2019-04-14T12:20:04.075Z,10.97
2019-04-14T12:21:04.073Z,10.81
2019-04-14T12:22:08.611Z,12.10
2019-04-14T12:23:04.715Z,13.39
2019-04-14T12:24:04.051Z,12.64
2019-04-14T12:25:04.001Z,12.01
2019-04-14T12:26:05.475Z,11.37
2019-04-14T12:27:04.080Z,11.44
2019-04-14T12:28:04.778Z,11.17
2019-04-14T12:29:05.168Z,10.79
2019-04-14T12:30:04.030Z,10.55
2019-04-14T12:31:04.115Z,10.64
2019-04-14T12:32:04.018Z,11.10
2019-04-14T12:33:04.173Z,11.07
2019-04-14T12:34:04.070Z,11.22
2019-04-14T12:35:03.912Z,12.45
2019-04-14T12:36:03.946Z,13.54
2019-04-14T12:37:03.933Z,13.36
2019-04-14T12:38:03.898Z,14.27
2019-04-14T12:39:03.950Z,13.79
2019-04-14T12:40:04.861Z,13.11
2019-04-14T12:41:04.433Z,11.99
2019-04-14T12:42:03.822Z,11.29
2019-04-14T12:43:03.986Z,10.94
2019-04-14T12:44:03.821Z,10.96
2019-04-14T12:45:03.802Z,10.92
2019-04-14T12:46:06.194Z,10.99
2019-04-14T12:47:03.803Z,12.13
2019-04-14T12:48:03.813Z,13.25
2019-04-14T12:49:03.794Z,13.26
2019-04-14T12:50:03.798Z,12.19
2019-04-14T12:51:03.819Z,12.04
2019-04-14T12:52:03.732Z,13.15
2019-04-14T12:53:05.177Z,12.79
2019-04-14T12:54:03.823Z,12.57
2019-04-14T12:55:03.679Z,12.56
2019-04-14T12:56:03.701Z,13.99
2019-04-14T12:57:03.683Z,14.47
2019-04-14T12:58:03.687Z,14.50
2019-04-14T12:59:03.632Z,14.64
2019-04-14T13:00:03.635Z,14.65
2019-04-14T13:01:03.608Z,13.67
2019-04-14T13:02:03.646Z,12.46
2019-04-14T13:03:14.291Z,12.19
2019-04-14T13:04:03.570Z,11.55
2019-04-14T13:05:03.600Z,11.25
2019-04-14T13:06:03.568Z,11.10
2019-04-14T13:07:03.542Z,10.70
2019-04-14T13:08:04.169Z,10.60
2019-04-14T13:09:03.570Z,10.66
2019-04-14T13:10:03.557Z,10.89
2019-04-14T13:11:03.506Z,12.01
2019-04-14T13:12:03.527Z,11.33
2019-04-14T13:13:03.585Z,11.27
2019-04-14T13:14:03.528Z,10.89
2019-04-14T13:15:03.513Z,10.60
2019-04-14T13:16:03.488Z,10.84
2019-04-14T13:17:03.455Z,12.53
2019-04-14T13:18:05.229Z,14.06
2019-04-14T13:19:03.409Z,14.07
2019-04-14T13:20:03.407Z,12.87
2019-04-14T13:21:03.392Z,11.79
2019-04-14T13:22:03.376Z,11.37
2019-04-14T13:23:04.242Z,10.97
2019-04-14T13:24:03.351Z,11.18
2019-04-14T13:25:03.370Z,11.46
2019-04-14T13:26:03.515Z,11.62
2019-04-14T13:27:03.335Z,11.42
2019-04-14T13:28:03.337Z,11.18
2019-04-14T13:29:03.364Z,11.21
2019-04-14T13:30:03.375Z,11.09
2019-04-14T13:31:03.377Z,10.94
2019-04-14T13:32:03.440Z,11.00
2019-04-14T13:33:03.298Z,11.18
2019-04-14T13:36:39.364Z,11.72
2019-04-14T13:37:39.478Z,11.37